createdAt,value
2017-08-16T00:00:52.611Z,100804.94
2017-08-16T00:03:20.071Z,100807.71
2017-08-16T00:05:48.211Z,100815.16
2017-08-16T00:08:15.702Z,100803.67
2017-08-16T00:10:43.284Z,100797.25
2017-08-16T00:13:10.818Z,100802.12
2017-08-16T00:15:38.269Z,100809.06
2017-08-16T00:18:05.934Z,100812.19
2017-08-16T00:20:33.388Z,100807.28
2017-08-16T00:23:00.955Z,100812.11
2017-08-16T00:25:28.484Z,100817.47
2017-08-16T00:27:55.965Z,100810.33
2017-08-16T00:30:23.420Z,100815.73
2017-08-16T00:32:50.900Z,100811.30
2017-08-16T00:35:18.433Z,100800.42
2017-08-16T00:37:45.940Z,100806.27
2017-08-16T00:40:13.401Z,100804.58
2017-08-16T00:42:40.876Z,100805.48
2017-08-16T00:45:08.335Z,100796.72
2017-08-16T00:47:35.818Z,100794.97
2017-08-16T00:50:03.285Z,100791.26
2017-08-16T00:52:30.760Z,100787.17
2017-08-16T00:54:59.004Z,100792.81
2017-08-16T00:57:26.471Z,100782.70
2017-08-16T00:59:53.934Z,100786.16
2017-08-16T01:02:21.475Z,100799.09
2017-08-16T01:04:49.089Z,100794.91
2017-08-16T01:07:16.652Z,100790.56
2017-08-16T01:09:44.165Z,100796.59
2017-08-16T01:12:11.622Z,100801.21
2017-08-16T01:14:39.106Z,100796.87
2017-08-16T01:17:06.647Z,100802.56
2017-08-16T01:19:34.193Z,100800.02
2017-08-16T01:22:01.649Z,100807.14
2017-08-16T01:24:29.198Z,100804.68
2017-08-16T01:26:56.660Z,100807.52
2017-08-16T01:29:24.135Z,100803.31
2017-08-16T01:31:51.677Z,100803.79
2017-08-16T01:34:19.223Z,100795.41
2017-08-16T01:36:46.681Z,100800.44
2017-08-16T01:39:14.161Z,100806.34
2017-08-16T01:41:41.699Z,100805.23
2017-08-16T01:44:09.215Z,100809.16
2017-08-16T01:46:36.685Z,100814.16
2017-08-16T01:49:04.162Z,100816.84
2017-08-16T01:51:31.757Z,100801.72
2017-08-16T01:53:59.217Z,100805.98
2017-08-16T01:56:26.767Z,100811.02
2017-08-16T01:58:54.227Z,100815.08
2017-08-16T02:01:21.773Z,100818.21
2017-08-16T02:03:49.241Z,100815.95
2017-08-16T02:06:16.736Z,100821.59
2017-08-16T02:08:44.198Z,100821.16
2017-08-16T02:11:11.672Z,100812.80
2017-08-16T02:13:39.130Z,100803.47
2017-08-16T02:16:06.719Z,100810.91
2017-08-16T02:18:34.259Z,100813.89
2017-08-16T02:21:01.829Z,100809.95
2017-08-16T02:23:29.287Z,100805.59
2017-08-16T02:25:56.773Z,100808.55
2017-08-16T02:28:24.224Z,100809.73
2017-08-16T02:30:51.761Z,100818.84
2017-08-16T02:33:19.261Z,100823.36
2017-08-16T02:35:46.721Z,100836.27
2017-08-16T02:38:14.244Z,100837.88
2017-08-16T02:40:41.708Z,100841.91
2017-08-16T02:43:09.172Z,100841.80
2017-08-16T02:45:36.705Z,100849.92
2017-08-16T02:48:04.180Z,100850.64
2017-08-16T02:50:31.642Z,100859.60
2017-08-16T02:52:59.121Z,100860.45
2017-08-16T02:55:26.620Z,100860.34
2017-08-16T02:57:54.129Z,100865.84
2017-08-16T03:00:21.635Z,100865.14
2017-08-16T03:02:49.108Z,100863.05
2017-08-16T03:05:16.629Z,100867.48
2017-08-16T03:07:44.108Z,100864.98
2017-08-16T03:10:11.666Z,100861.67
2017-08-16T03:12:39.119Z,100861.50
2017-08-16T03:15:06.694Z,100862.06
2017-08-16T03:17:34.166Z,100870.13
2017-08-16T03:20:01.649Z,100875.17
2017-08-16T03:22:29.111Z,100874.59
2017-08-16T03:24:56.707Z,100877.16
2017-08-16T03:27:24.271Z,100871.34
2017-08-16T03:29:51.841Z,100871.70
2017-08-16T03:32:19.388Z,100869.65
2017-08-16T03:34:46.857Z,100866.84
2017-08-16T03:37:14.320Z,100869.53
2017-08-16T03:39:41.914Z,100867.75
2017-08-16T03:42:09.401Z,100878.08
2017-08-16T03:44:36.904Z,100881.67
2017-08-16T03:47:04.492Z,100882.87
2017-08-16T03:49:32.067Z,100879.14
2017-08-16T03:51:59.531Z,100883.16
2017-08-16T03:54:27.025Z,100887.52
2017-08-16T03:56:54.505Z,100887.37
2017-08-16T03:59:22.033Z,100887.09
2017-08-16T04:01:49.608Z,100891.16
2017-08-16T04:04:17.128Z,100886.09
2017-08-16T04:06:44.650Z,100896.83
2017-08-16T04:09:12.107Z,100893.56
2017-08-16T04:11:39.579Z,100901.52
2017-08-16T04:14:07.037Z,100901.75
2017-08-16T04:16:34.552Z,100903.03
2017-08-16T04:19:02.021Z,100895.31
2017-08-16T04:21:29.500Z,100902.26
2017-08-16T04:23:56.998Z,100910.36
2017-08-16T04:26:24.506Z,100905.45
2017-08-16T04:28:51.981Z,100914.43
2017-08-16T04:31:19.456Z,100913.08
2017-08-16T04:33:46.938Z,100918.75
2017-08-16T04:36:14.416Z,100924.41
2017-08-16T04:38:43.221Z,100927.46
2017-08-16T04:41:10.831Z,100930.63
2017-08-16T04:43:38.299Z,100925.52
2017-08-16T04:46:05.757Z,100917.91
2017-08-16T04:48:33.315Z,100920.39
2017-08-16T04:51:00.774Z,100923.12
2017-08-16T04:53:28.394Z,100922.78
2017-08-16T04:55:55.843Z,100921.59
2017-08-16T04:58:23.349Z,100925.28
2017-08-16T05:00:50.841Z,100924.09
2017-08-16T05:03:18.302Z,100927.38
2017-08-16T05:05:45.786Z,100930.29
2017-08-16T05:08:13.369Z,100925.61
2017-08-16T05:10:40.824Z,100927.00
2017-08-16T05:13:08.292Z,100934.52
2017-08-16T05:15:35.834Z,100931.77
2017-08-16T05:18:03.746Z,100939.59
2017-08-16T05:20:31.213Z,100941.09
2017-08-16T05:22:58.675Z,100943.03
2017-08-16T05:25:26.151Z,100939.30
2017-08-16T05:27:53.624Z,100944.73
2017-08-16T05:30:21.163Z,100948.38
2017-08-16T05:32:48.603Z,100945.05
2017-08-16T05:35:16.100Z,100939.27
2017-08-16T05:37:43.552Z,100943.69
2017-08-16T05:40:11.042Z,100946.43
2017-08-16T05:42:38.501Z,100945.21
2017-08-16T05:45:06.051Z,100942.78
2017-08-16T05:47:33.592Z,100940.88
2017-08-16T05:50:01.069Z,100945.36
2017-08-16T05:52:28.517Z,100946.81
2017-08-16T05:54:56.592Z,100958.13
2017-08-16T05:57:24.049Z,100957.22
2017-08-16T05:59:51.587Z,100955.48
2017-08-16T06:02:19.058Z,100948.43
2017-08-16T06:04:46.605Z,100943.42
2017-08-16T06:07:14.060Z,100947.55
2017-08-16T06:09:41.571Z,100950.65
2017-08-16T06:12:09.024Z,100946.78
2017-08-16T06:14:36.581Z,100954.52
2017-08-16T06:17:04.050Z,100960.64
2017-08-16T06:19:31.665Z,100965.92
2017-08-16T06:21:59.212Z,100968.71
2017-08-16T06:24:26.681Z,100970.95
2017-08-16T06:26:54.149Z,100973.49
2017-08-16T06:29:21.628Z,100972.47
2017-08-16T06:31:49.100Z,100971.88
2017-08-16T06:34:16.589Z,100980.32
2017-08-16T06:36:44.147Z,100977.82
2017-08-16T06:39:11.708Z,100983.67
2017-08-16T06:41:39.277Z,100989.84
2017-08-16T06:44:06.776Z,100989.97
2017-08-16T06:46:34.284Z,100991.14
2017-08-16T06:49:01.737Z,100992.72
2017-08-16T06:51:29.207Z,100990.33
2017-08-16T06:53:56.755Z,100996.02
2017-08-16T06:56:24.319Z,100994.41
2017-08-16T06:58:51.897Z,100997.22
2017-08-16T07:01:19.456Z,100991.02
2017-08-16T07:03:46.942Z,100990.67
2017-08-16T07:06:14.441Z,100987.02
2017-08-16T07:08:41.879Z,100988.93
2017-08-16T07:11:09.362Z,100983.00
2017-08-16T07:13:36.872Z,100989.72
2017-08-16T07:16:04.403Z,100989.64
2017-08-16T07:18:32.048Z,100996.87
2017-08-16T07:21:00.393Z,101006.03
2017-08-16T07:23:27.872Z,101001.86
2017-08-16T07:25:55.326Z,100995.01
2017-08-16T07:28:22.857Z,100992.23
2017-08-16T07:30:50.303Z,100994.30
2017-08-16T07:33:17.791Z,101002.49
2017-08-16T07:35:45.241Z,100994.23
2017-08-16T07:38:12.728Z,100995.09
2017-08-16T07:40:40.283Z,100994.88
2017-08-16T07:43:07.756Z,100998.23
2017-08-16T07:45:35.289Z,101001.72
2017-08-16T07:48:02.779Z,101000.36
2017-08-16T07:50:30.253Z,100999.70
2017-08-16T07:52:57.716Z,100995.97
2017-08-16T07:55:25.209Z,101001.83
2017-08-16T07:57:52.782Z,101001.27
2017-08-16T08:00:20.892Z,101002.39
2017-08-16T08:02:48.362Z,101005.91
2017-08-16T08:05:15.841Z,101006.06
2017-08-16T08:07:43.296Z,101004.73
2017-08-16T08:10:10.781Z,101008.32
2017-08-16T08:12:38.247Z,101005.90
2017-08-16T08:15:05.779Z,101011.95
2017-08-16T08:17:33.248Z,101010.61
2017-08-16T08:20:00.800Z,101004.67
2017-08-16T08:22:28.265Z,101005.65
2017-08-16T08:24:56.174Z,101007.02
2017-08-16T08:27:23.649Z,101007.94
2017-08-16T08:29:51.148Z,101004.80
2017-08-16T08:32:18.642Z,101003.31
2017-08-16T08:34:46.189Z,101002.24
2017-08-16T08:37:13.637Z,100999.98
2017-08-16T08:39:41.180Z,100992.66
2017-08-16T08:42:08.657Z,101008.78
2017-08-16T08:44:36.212Z,101003.69
2017-08-16T08:47:03.753Z,101000.41
2017-08-16T08:49:31.300Z,101001.00
2017-08-16T08:51:58.764Z,101000.30
2017-08-16T08:54:26.213Z,101002.72
2017-08-16T08:56:53.695Z,101006.72
2017-08-16T08:59:21.162Z,101009.05
2017-08-16T09:01:48.632Z,101002.50
2017-08-16T09:04:16.093Z,101008.14
2017-08-16T09:06:43.554Z,101005.75
2017-08-16T09:09:11.013Z,101007.00
2017-08-16T09:11:38.508Z,101004.77
2017-08-16T09:14:05.956Z,101005.61
2017-08-16T09:16:33.480Z,101008.62
2017-08-16T09:19:00.941Z,101014.69
2017-08-16T09:21:28.397Z,101005.04
2017-08-16T09:23:55.883Z,101004.62
2017-08-16T09:26:23.381Z,101001.67
2017-08-16T09:28:50.858Z,101000.98
2017-08-16T09:31:18.392Z,101001.94
2017-08-16T09:33:45.954Z,100998.83
2017-08-16T09:36:13.442Z,101001.22
2017-08-16T09:38:40.917Z,101001.85
2017-08-16T09:41:08.381Z,100997.23
2017-08-16T09:43:35.848Z,100994.23
2017-08-16T09:46:03.290Z,100984.41
2017-08-16T09:48:30.879Z,100991.53
2017-08-16T09:50:58.340Z,100979.27
2017-08-16T09:53:25.807Z,100983.69
2017-08-16T09:55:53.353Z,100979.08
2017-08-16T09:58:20.847Z,100977.25
2017-08-16T10:00:48.295Z,100981.25
2017-08-16T10:03:15.810Z,100973.78
2017-08-16T10:05:43.469Z,100969.22
2017-08-16T10:08:11.090Z,100975.72
2017-08-16T10:10:38.589Z,100968.48
2017-08-16T10:13:06.147Z,100970.70
2017-08-16T10:15:33.641Z,100969.22
2017-08-16T10:18:01.709Z,100968.52
2017-08-16T10:20:29.220Z,100963.53
2017-08-16T10:22:56.672Z,100963.66
2017-08-16T10:25:24.150Z,100965.83
2017-08-16T10:27:51.612Z,100964.55
2017-08-16T10:30:19.296Z,100959.52
2017-08-16T10:32:46.837Z,100962.14
2017-08-16T10:35:14.307Z,100964.77
2017-08-16T10:37:41.790Z,100956.94
2017-08-16T10:40:09.281Z,100961.20
2017-08-16T10:42:37.318Z,100955.11
2017-08-16T10:45:05.025Z,100945.44
2017-08-16T10:47:32.677Z,100943.47
2017-08-16T10:50:00.143Z,100942.66
2017-08-16T10:52:27.653Z,100935.91
2017-08-16T10:54:55.159Z,100931.05
2017-08-16T10:57:22.669Z,100933.97
2017-08-16T10:59:50.191Z,100932.02
2017-08-16T11:02:17.683Z,100924.06
2017-08-16T11:04:45.199Z,100918.14
2017-08-16T11:07:12.663Z,100915.95
2017-08-16T11:09:40.123Z,100910.62
2017-08-16T11:12:07.662Z,100899.65
2017-08-16T11:14:35.103Z,100904.44
2017-08-16T11:17:02.680Z,100900.88
2017-08-16T11:19:30.138Z,100907.80
2017-08-16T11:21:57.720Z,100908.16
2017-08-16T11:24:25.261Z,100906.30
2017-08-16T11:26:52.759Z,100904.51
2017-08-16T11:29:20.276Z,100899.34
2017-08-16T11:31:47.737Z,100898.98
2017-08-16T11:34:15.286Z,100905.75
2017-08-16T11:36:42.835Z,100897.98
2017-08-16T11:39:10.299Z,100903.03
2017-08-16T11:41:37.875Z,100902.95
2017-08-16T11:44:05.355Z,100903.78
2017-08-16T11:46:32.874Z,100888.67
2017-08-16T11:49:00.367Z,100896.97
2017-08-16T11:51:27.812Z,100888.59
2017-08-16T11:53:55.396Z,100877.62
2017-08-16T11:56:22.853Z,100887.87
2017-08-16T11:58:50.337Z,100878.13
2017-08-16T12:01:17.867Z,100877.19
2017-08-16T12:03:45.341Z,100873.72
2017-08-16T12:06:12.829Z,100872.23
2017-08-16T12:08:40.276Z,100870.20
2017-08-16T12:11:07.812Z,100885.20
2017-08-16T12:13:35.300Z,100886.38
2017-08-16T12:16:02.865Z,100882.66
2017-08-16T12:18:30.419Z,100878.88
2017-08-16T12:20:57.927Z,100876.23
2017-08-16T12:23:25.531Z,100871.70
2017-08-16T12:25:53.104Z,100877.05
2017-08-16T12:28:20.585Z,100875.62
2017-08-16T12:30:48.163Z,100875.84
2017-08-16T12:33:15.673Z,100869.15
2017-08-16T12:35:43.640Z,100873.18
2017-08-16T12:38:11.122Z,100877.68
2017-08-16T12:40:38.597Z,100874.17
2017-08-16T12:43:06.069Z,100882.62
2017-08-16T12:45:33.577Z,100872.69
2017-08-16T12:48:01.124Z,100870.27
2017-08-16T12:50:28.573Z,100874.20
2017-08-16T12:52:56.093Z,100869.16
2017-08-16T12:55:23.554Z,100874.44
2017-08-16T12:57:51.067Z,100871.15
2017-08-16T13:00:18.992Z,100871.91
2017-08-16T13:02:46.505Z,100874.72
2017-08-16T13:05:14.043Z,100869.83
2017-08-16T13:07:41.525Z,100862.37
2017-08-16T13:10:09.050Z,100864.79
2017-08-16T13:12:36.746Z,100855.77
2017-08-16T13:15:06.248Z,100855.84
2017-08-16T13:17:33.734Z,100858.93
2017-08-16T13:20:01.233Z,100858.16
2017-08-16T13:22:28.798Z,100855.02
2017-08-16T13:24:56.874Z,100860.62
2017-08-16T13:27:24.419Z,100858.89
2017-08-16T13:29:51.871Z,100846.19
2017-08-16T13:32:19.337Z,100853.27
2017-08-16T13:34:46.897Z,100842.31
2017-08-16T13:37:14.701Z,100848.69
2017-08-16T13:39:42.221Z,100842.36
2017-08-16T13:42:09.714Z,100840.85
2017-08-16T13:44:37.213Z,100838.28
2017-08-16T13:47:04.668Z,100838.41
2017-08-16T13:49:32.257Z,100845.88
2017-08-16T13:51:59.859Z,100842.17
2017-08-16T13:54:27.334Z,100851.83
2017-08-16T13:56:54.790Z,100845.11
2017-08-16T13:59:22.275Z,100840.53
2017-08-16T14:01:49.725Z,100841.50
2017-08-16T14:04:17.208Z,100841.64
2017-08-16T14:06:44.651Z,100835.95
2017-08-16T14:09:12.121Z,100836.95
2017-08-16T14:11:39.669Z,100831.75
2017-08-16T14:14:07.144Z,100818.38
2017-08-16T14:16:34.669Z,100826.31
2017-08-16T14:19:03.029Z,100817.42
2017-08-16T14:21:30.489Z,100810.40
2017-08-16T14:23:57.941Z,100815.48
2017-08-16T14:26:25.437Z,100804.35
2017-08-16T14:28:52.890Z,100810.23
2017-08-16T14:31:20.450Z,100804.79
2017-08-16T14:33:47.979Z,100806.09
2017-08-16T14:36:15.471Z,100808.05
2017-08-16T14:38:42.992Z,100800.02
2017-08-16T14:41:10.469Z,100800.39
2017-08-16T14:43:37.925Z,100802.61
2017-08-16T14:46:05.457Z,100801.02
2017-08-16T14:48:32.934Z,100799.10
2017-08-16T14:51:00.417Z,100802.02
2017-08-16T14:53:27.879Z,100798.67
2017-08-16T14:55:55.421Z,100801.81
2017-08-16T14:58:22.975Z,100795.22
2017-08-16T15:00:50.528Z,100794.08
2017-08-16T15:03:18.092Z,100801.84
2017-08-16T15:05:45.623Z,100801.70
2017-08-16T15:08:13.081Z,100795.45
2017-08-16T15:10:40.660Z,100796.47
2017-08-16T15:13:08.120Z,100796.13
2017-08-16T15:15:35.607Z,100793.36
2017-08-16T15:18:03.389Z,100796.32
2017-08-16T15:20:30.860Z,100798.58
2017-08-16T15:22:58.340Z,100797.31
2017-08-16T15:25:25.788Z,100791.89
2017-08-16T15:27:53.348Z,100788.20
2017-08-16T15:30:21.006Z,100790.39
2017-08-16T15:32:48.485Z,100789.09
2017-08-16T15:35:15.937Z,100786.95
2017-08-16T15:37:43.424Z,100786.12
2017-08-16T15:40:10.894Z,100788.34
2017-08-16T15:42:38.956Z,100780.55
2017-08-16T15:45:06.412Z,100775.83
2017-08-16T15:47:33.892Z,100770.28
2017-08-16T15:50:01.346Z,100767.62
2017-08-16T15:52:29.646Z,100770.08
2017-08-16T15:54:57.122Z,100767.26
2017-08-16T15:57:24.695Z,100764.60
2017-08-16T15:59:52.159Z,100757.80
2017-08-16T16:02:19.653Z,100763.67
2017-08-16T16:04:47.173Z,100763.73
2017-08-16T16:07:14.689Z,100761.74
2017-08-16T16:09:42.226Z,100766.77
2017-08-16T16:12:09.836Z,100772.27
2017-08-16T16:14:37.306Z,100771.30
2017-08-16T16:17:04.885Z,100763.36
2017-08-16T16:19:32.367Z,100757.98
2017-08-16T16:21:59.825Z,100751.30
2017-08-16T16:24:27.374Z,100749.22
2017-08-16T16:26:54.828Z,100751.66
2017-08-16T16:29:22.353Z,100740.11
2017-08-16T16:31:49.966Z,100743.20
2017-08-16T16:34:17.705Z,100742.29
2017-08-16T16:36:45.229Z,100734.77
2017-08-16T16:39:12.680Z,100744.67
2017-08-16T16:41:40.151Z,100738.34
2017-08-16T16:44:07.692Z,100745.78
2017-08-16T16:46:35.656Z,100742.34
2017-08-16T16:49:03.155Z,100744.76
2017-08-16T16:51:30.673Z,100740.95
2017-08-16T16:53:58.115Z,100737.77
2017-08-16T16:56:25.593Z,100744.77
2017-08-16T16:58:53.504Z,100753.05
2017-08-16T17:01:21.053Z,100751.74
2017-08-16T17:03:48.572Z,100749.37
2017-08-16T17:06:16.128Z,100763.89
2017-08-16T17:08:43.693Z,100753.09
2017-08-16T17:11:11.550Z,100757.06
2017-08-16T17:13:39.117Z,100768.07
2017-08-16T17:16:06.681Z,100765.05
2017-08-16T17:18:34.146Z,100755.56
2017-08-16T17:21:01.693Z,100755.43
2017-08-16T17:23:29.471Z,100753.01
2017-08-16T17:25:56.934Z,100750.59
2017-08-16T17:28:24.425Z,100746.52
2017-08-16T17:30:51.880Z,100744.50
2017-08-16T17:33:19.358Z,100750.17
2017-08-16T17:35:46.844Z,100749.83
2017-08-16T17:38:14.370Z,100752.16
2017-08-16T17:40:41.832Z,100753.88
2017-08-16T17:43:09.305Z,100754.66
2017-08-16T17:45:36.747Z,100752.39
2017-08-16T17:48:04.220Z,100749.70
2017-08-16T17:50:31.698Z,100743.09
2017-08-16T17:52:59.168Z,100744.73
2017-08-16T17:55:26.699Z,100744.89
2017-08-16T17:57:54.255Z,100734.59
2017-08-16T18:00:21.881Z,100741.27
2017-08-16T18:02:49.378Z,100741.98
2017-08-16T18:05:16.929Z,100743.03
2017-08-16T18:07:44.389Z,100741.23
2017-08-16T18:10:11.872Z,100750.59
2017-08-16T18:12:39.405Z,100741.52
2017-08-16T18:15:07.290Z,100747.98
2017-08-16T18:17:34.824Z,100749.58
2017-08-16T18:20:02.292Z,100752.08
2017-08-16T18:22:29.841Z,100752.89
2017-08-16T18:24:57.324Z,100763.52
2017-08-16T18:27:25.061Z,100761.73
2017-08-16T18:29:52.526Z,100756.98
2017-08-16T18:32:19.987Z,100748.94
2017-08-16T18:34:47.527Z,100756.56
2017-08-16T18:37:15.009Z,100757.11
2017-08-16T18:39:43.307Z,100757.11
2017-08-16T18:42:10.790Z,100754.14
2017-08-16T18:44:38.259Z,100755.78
2017-08-16T18:47:05.721Z,100765.33
2017-08-16T18:49:33.199Z,100762.45
2017-08-16T18:52:00.830Z,100763.02
2017-08-16T18:54:28.313Z,100760.16
2017-08-16T18:56:55.792Z,100749.56
2017-08-16T18:59:23.333Z,100754.95
2017-08-16T19:01:50.813Z,100757.77
2017-08-16T19:04:18.345Z,100762.03
2017-08-16T19:06:45.902Z,100758.94
2017-08-16T19:09:13.468Z,100763.88
2017-08-16T19:11:41.013Z,100767.66
2017-08-16T19:14:08.587Z,100768.83
2017-08-16T19:16:36.073Z,100764.11
2017-08-16T19:19:03.596Z,100777.77
2017-08-16T19:21:31.150Z,100780.22
2017-08-16T19:23:58.700Z,100776.59
2017-08-16T19:26:26.197Z,100777.02
2017-08-16T19:28:53.657Z,100777.45
2017-08-16T19:31:21.184Z,100779.67
2017-08-16T19:33:48.745Z,100772.97
2017-08-16T19:36:16.209Z,100776.80
2017-08-16T19:38:43.684Z,100781.03
2017-08-16T19:41:11.226Z,100779.78
2017-08-16T19:43:38.782Z,100777.62
2017-08-16T19:46:06.325Z,100778.98
2017-08-16T19:48:33.800Z,100775.04
2017-08-16T19:51:01.338Z,100779.94
2017-08-16T19:53:28.808Z,100779.02
2017-08-16T19:55:56.407Z,100774.72
2017-08-16T19:58:23.925Z,100778.34
2017-08-16T20:00:51.471Z,100780.66
2017-08-16T20:03:18.961Z,100772.59
2017-08-16T20:05:46.442Z,100774.59
2017-08-16T20:08:14.044Z,100777.52
2017-08-16T20:10:41.519Z,100788.40
2017-08-16T20:13:09.066Z,100794.41
2017-08-16T20:15:36.545Z,100789.50
2017-08-16T20:18:04.075Z,100788.30
2017-08-16T20:20:31.636Z,100791.70
2017-08-16T20:22:59.203Z,100797.29
2017-08-16T20:25:26.747Z,100793.01
2017-08-16T20:27:54.195Z,100798.69
2017-08-16T20:30:21.678Z,100794.78
2017-08-16T20:32:49.173Z,100790.56
2017-08-16T20:35:16.684Z,100793.23
2017-08-16T20:37:44.131Z,100797.06
2017-08-16T20:40:11.601Z,100800.30
2017-08-16T20:42:39.157Z,100799.22
2017-08-16T20:45:06.649Z,100794.84
2017-08-16T20:47:34.096Z,100793.00
2017-08-16T20:50:01.629Z,100788.48
2017-08-16T20:52:29.195Z,100796.16
2017-08-16T20:54:56.649Z,100785.48
2017-08-16T20:57:24.144Z,100796.23
2017-08-16T20:59:51.600Z,100788.85
2017-08-16T21:02:19.176Z,100788.80
2017-08-16T21:04:46.633Z,100794.28
2017-08-16T21:07:14.109Z,100796.83
2017-08-16T21:09:42.473Z,100786.81
2017-08-16T21:12:09.954Z,100784.66
2017-08-16T21:14:37.467Z,100784.45
2017-08-16T21:17:05.027Z,100778.94
2017-08-16T21:19:32.551Z,100776.45
2017-08-16T21:22:00.547Z,100777.09
2017-08-16T21:24:28.056Z,100782.61
2017-08-16T21:26:55.618Z,100780.13
2017-08-16T21:29:23.092Z,100786.66
2017-08-16T21:31:50.644Z,100784.91
2017-08-16T21:34:18.121Z,100782.23
2017-08-16T21:36:45.649Z,100785.59
2017-08-16T21:39:13.226Z,100787.27
2017-08-16T21:41:40.687Z,100794.52
2017-08-16T21:44:08.161Z,100797.59
2017-08-16T21:46:35.628Z,100804.74
2017-08-16T21:49:03.131Z,100798.85
2017-08-16T21:51:30.579Z,100780.84
2017-08-16T21:53:58.204Z,100769.88
2017-08-16T21:56:25.676Z,100766.63
2017-08-16T21:58:53.273Z,100768.87
2017-08-16T22:01:20.728Z,100760.62
2017-08-16T22:03:48.210Z,100749.18
2017-08-16T22:06:15.691Z,100753.06
2017-08-16T22:08:43.149Z,100745.02
2017-08-16T22:11:10.624Z,100748.52
2017-08-16T22:13:38.082Z,100745.05
2017-08-16T22:16:05.567Z,100737.53
2017-08-16T22:18:33.048Z,100737.27
2017-08-16T22:21:00.515Z,100736.28
2017-08-16T22:23:27.982Z,100730.72
2017-08-16T22:25:55.609Z,100737.50
2017-08-16T22:28:23.154Z,100736.66
2017-08-16T22:30:50.643Z,100735.72
2017-08-16T22:33:18.100Z,100737.89
2017-08-16T22:35:45.626Z,100736.28
2017-08-16T22:38:13.242Z,100732.78
2017-08-16T22:40:40.739Z,100728.87
2017-08-16T22:43:08.184Z,100724.83
2017-08-16T22:45:35.812Z,100721.27
2017-08-16T22:48:03.275Z,100717.38
2017-08-16T22:50:30.765Z,100711.87
2017-08-16T22:52:58.337Z,100719.64
2017-08-16T22:55:25.797Z,100718.95
2017-08-16T22:57:53.363Z,100712.13
2017-08-16T23:00:20.815Z,100712.98
2017-08-16T23:02:48.297Z,100709.91
2017-08-16T23:05:15.752Z,100714.84
2017-08-16T23:07:43.229Z,100719.09
2017-08-16T23:10:10.683Z,100709.38
2017-08-16T23:12:38.188Z,100707.44
2017-08-16T23:15:05.753Z,100708.55
2017-08-16T23:17:33.358Z,100703.23
2017-08-16T23:20:00.868Z,100710.12
2017-08-16T23:22:28.345Z,100708.85
2017-08-16T23:24:56.266Z,100705.20
2017-08-16T23:27:23.853Z,100709.83
2017-08-16T23:29:51.519Z,100716.52
2017-08-16T23:32:19.077Z,100720.86
2017-08-16T23:34:46.622Z,100712.66
2017-08-16T23:37:14.341Z,100717.20
2017-08-16T23:39:41.835Z,100716.00
2017-08-16T23:42:09.283Z,100712.82
2017-08-16T23:44:36.868Z,100717.88
2017-08-16T23:47:04.354Z,100717.20
2017-08-16T23:49:31.882Z,100714.34
2017-08-16T23:51:59.436Z,100715.66
2017-08-16T23:54:27.001Z,100719.27
2017-08-16T23:56:54.476Z,100714.84
2017-08-16T23:59:22.012Z,100707.87
